Time;durP1;ratioP1;P1;durP2;ratioP2;P2;SDS_P1;SDS_P2;PMS_P1;PMS_P2;Temp;Humidity;BMP_temperature;BMP_pressure;BME280_temperature;BME280_humidity;BME280_pressure;Samples;Min_cycle;Max_cycle;Signal;HPM_P1;HPM_P2
2023/12/11 00:00:32;;;;;;;23.63;5.00;;;5.90;99.90;;;;;;5221165;28;20444;-49
2023/12/11 00:03:02;;;;;;;15.53;4.60;;;5.90;99.90;;;;;;5226648;28;20190;-50
2023/12/11 00:05:33;;;;;;;17.30;5.77;;;5.90;99.90;;;;;;5222582;28;20769;-50
2023/12/11 00:08:04;;;;;;;13.77;6.37;;;5.90;99.90;;;;;;5227160;28;20257;-49
2023/12/11 00:10:34;;;;;;;22.57;4.57;;;5.90;99.90;;;;;;5234012;28;20194;-49
2023/12/11 00:13:05;;;;;;;12.77;3.90;;;6.00;99.90;;;;;;5237377;28;20218;-49
2023/12/11 00:15:36;;;;;;;7.17;3.20;;;6.00;99.90;;;;;;5230656;28;20203;-47
2023/12/11 00:18:07;;;;;;;23.10;3.73;;;6.10;99.90;;;;;;5228874;28;20183;-48
2023/12/11 00:20:37;;;;;;;14.93;3.80;;;6.20;99.90;;;;;;5231654;28;20413;-49
2023/12/11 00:23:08;;;;;;;13.20;4.07;;;6.20;99.90;;;;;;5230322;28;20552;-50
2023/12/11 00:25:46;;;;;;;18.07;4.53;;;6.20;99.90;;;;;;5222782;28;20211;-49
2023/12/11 00:28:17;;;;;;;21.17;3.70;;;6.20;99.90;;;;;;5222844;28;20194;-49
2023/12/11 00:30:48;;;;;;;23.23;4.43;;;6.10;99.90;;;;;;5224815;28;20569;-49
2023/12/11 00:33:19;;;;;;;14.20;4.07;;;6.00;99.90;;;;;;5226228;28;20701;-48
2023/12/11 00:35:50;;;;;;;13.13;3.60;;;6.00;99.90;;;;;;5227279;28;20202;-49
2023/12/11 00:38:20;;;;;;;18.43;3.77;;;6.00;99.90;;;;;;5229921;28;20191;-49
2023/12/11 00:40:52;;;;;;;25.80;4.37;;;6.10;99.90;;;;;;5226972;28;20447;-51
2023/12/11 00:43:23;;;;;;;18.83;4.10;;;6.20;99.90;;;;;;5230108;28;20175;-49
2023/12/11 00:45:54;;;;;;;14.87;4.23;;;6.00;99.90;;;;;;5224334;28;20511;-48
2023/12/11 00:48:25;;;;;;;21.10;4.53;;;6.10;99.90;;;;;;5221748;28;20220;-48
2023/12/11 00:50:55;;;;;;;3.43;2.37;;;6.00;99.90;;;;;;5228617;28;20670;-48
2023/12/11 00:53:26;;;;;;;20.17;3.60;;;6.10;99.90;;;;;;5224329;28;20472;-50
2023/12/11 00:55:57;;;;;;;12.73;4.00;;;6.10;99.90;;;;;;5226689;28;20205;-49
2023/12/11 00:58:28;;;;;;;18.07;4.03;;;6.00;99.90;;;;;;5228069;28;20259;-49
2023/12/11 01:00:59;;;;;;;17.43;4.37;;;6.00;99.90;;;;;;5231350;28;20181;-49
2023/12/11 01:03:29;;;;;;;18.53;4.47;;;5.90;99.90;;;;;;5229532;28;20809;-49
2023/12/11 01:06:00;;;;;;;22.83;4.97;;;5.90;99.90;;;;;;5225804;28;20249;-49
2023/12/11 01:08:32;;;;;;;16.40;4.50;;;6.10;99.90;;;;;;5226797;28;20187;-48
2023/12/11 01:11:03;;;;;;;16.77;4.40;;;6.10;99.90;;;;;;5224652;28;20624;-48
2023/12/11 01:13:34;;;;;;;18.07;4.60;;;5.90;99.90;;;;;;5227023;28;20465;-48
2023/12/11 01:16:05;;;;;;;20.70;5.03;;;5.80;99.90;;;;;;5222027;28;20461;-49
2023/12/11 01:18:36;;;;;;;33.03;5.20;;;5.80;99.90;;;;;;5232599;28;20195;-48
2023/12/11 01:21:06;;;;;;;18.00;5.43;;;5.80;99.90;;;;;;5220201;28;20197;-49
2023/12/11 01:23:37;;;;;;;19.73;5.50;;;5.70;99.90;;;;;;5212292;28;20269;-49
2023/12/11 01:26:08;;;;;;;28.80;5.60;;;5.80;99.90;;;;;;5224674;28;20211;-49
2023/12/11 01:28:39;;;;;;;15.23;3.60;;;5.80;99.90;;;;;;5227050;28;20187;-49
2023/12/11 01:31:09;;;;;;;19.80;3.80;;;5.80;99.90;;;;;;5228952;28;20452;-48
2023/12/11 01:33:40;;;;;;;26.43;5.10;;;5.80;99.90;;;;;;5228104;28;20234;-49
2023/12/11 01:36:11;;;;;;;15.77;4.13;;;5.80;99.90;;;;;;5237556;28;20191;-49
2023/12/11 01:38:42;;;;;;;18.00;4.70;;;5.70;99.90;;;;;;5228698;28;20642;-49
2023/12/11 01:41:13;;;;;;;17.53;3.70;;;5.80;99.90;;;;;;5231022;28;20468;-49
2023/12/11 01:43:54;;;;;;;23.83;3.83;;;5.80;99.90;;;;;;5231987;28;20194;-49
2023/12/11 01:46:25;;;;;;;14.70;3.70;;;5.80;99.90;;;;;;5227873;28;20626;-49
2023/12/11 01:48:55;;;;;;;10.23;3.70;;;5.90;99.90;;;;;;5228641;28;20434;-47
2023/12/11 01:51:26;;;;;;;9.03;3.33;;;5.90;99.90;;;;;;5228724;28;20202;-53
2023/12/11 01:53:57;;;;;;;10.73;3.53;;;5.90;99.90;;;;;;5229529;28;20214;-50
2023/12/11 01:56:29;;;;;;;17.93;3.53;;;5.80;99.90;;;;;;5228410;28;20433;-49
2023/12/11 01:59:00;;;;;;;26.13;4.23;;;5.90;99.90;;;;;;5209466;28;20793;-53
2023/12/11 02:01:31;;;;;;;22.73;4.67;;;5.90;99.90;;;;;;5230244;28;20524;-49
2023/12/11 02:04:01;;;;;;;19.73;5.20;;;6.00;99.90;;;;;;5226110;28;20183;-49
2023/12/11 02:06:32;;;;;;;14.23;3.90;;;6.00;99.90;;;;;;5224825;28;20206;-48
2023/12/11 02:09:03;;;;;;;17.60;4.57;;;6.10;99.90;;;;;;5228193;28;20197;-48
2023/12/11 02:11:34;;;;;;;9.30;4.37;;;6.20;99.90;;;;;;5225743;28;20662;-48
2023/12/11 02:14:05;;;;;;;12.63;4.90;;;6.30;99.90;;;;;;5224562;28;20461;-48
2023/12/11 02:16:35;;;;;;;18.60;4.40;;;6.30;99.90;;;;;;5222324;28;20215;-50
2023/12/11 02:19:06;;;;;;;20.83;5.17;;;6.30;99.90;;;;;;5224015;28;20218;-49
2023/12/11 02:21:37;;;;;;;17.27;3.47;;;6.20;99.90;;;;;;5227695;28;20715;-48
2023/12/11 02:24:14;;;;;;;12.57;4.57;;;6.20;99.90;;;;;;5229846;28;20206;-48
2023/12/11 02:26:45;;;;;;;19.10;4.20;;;6.30;99.90;;;;;;5217117;28;20246;-47
2023/12/11 02:29:15;;;;;;;10.67;4.00;;;6.30;99.90;;;;;;5224850;28;20480;-49
2023/12/11 02:31:46;;;;;;;10.83;4.30;;;6.40;99.90;;;;;;5221809;28;20199;-49
2023/12/11 02:34:17;;;;;;;11.70;3.80;;;6.40;99.90;;;;;;5223369;28;20269;-51
2023/12/11 02:36:48;;;;;;;9.83;3.63;;;6.30;99.90;;;;;;5223093;28;20265;-49
2023/12/11 02:39:19;;;;;;;7.30;3.47;;;6.30;99.90;;;;;;5228186;28;20178;-49
2023/12/11 02:41:50;;;;;;;12.60;3.57;;;6.50;99.90;;;;;;5225251;28;20429;-47
2023/12/11 02:44:20;;;;;;;21.37;5.03;;;6.50;99.90;;;;;;5228170;28;20463;-49
2023/12/11 02:46:51;;;;;;;21.23;5.03;;;6.50;99.90;;;;;;5225648;28;20197;-49
2023/12/11 02:49:22;;;;;;;9.50;3.40;;;6.50;99.90;;;;;;5228506;28;20281;-52
2023/12/11 02:51:52;;;;;;;8.30;3.50;;;6.40;99.90;;;;;;5222942;28;20234;-52
2023/12/11 02:54:23;;;;;;;10.17;3.77;;;6.40;99.90;;;;;;5228201;28;20314;-48
2023/12/11 02:56:53;;;;;;;6.80;2.93;;;6.40;99.90;;;;;;5226870;28;20714;-49
2023/12/11 02:59:24;;;;;;;18.93;3.90;;;6.50;99.90;;;;;;5230365;28;20214;-49
2023/12/11 03:01:55;;;;;;;16.00;3.77;;;6.50;99.90;;;;;;5227755;28;20516;-48
2023/12/11 03:07:01;;;;;;;18.20;3.73;;;6.50;99.90;;;;;;5217548;28;20617;-49
2023/12/11 03:09:32;;;;;;;13.67;3.53;;;6.60;99.90;;;;;;5215884;28;20479;-49
2023/12/11 03:12:02;;;;;;;18.57;3.57;;;6.60;99.90;;;;;;5221710;28;20178;-50
2023/12/11 03:14:33;;;;;;;15.20;3.00;;;6.60;99.90;;;;;;5211865;28;20546;-50
2023/12/11 03:17:04;;;;;;;13.73;3.13;;;6.60;99.90;;;;;;5217678;28;20188;-49
2023/12/11 03:19:34;;;;;;;22.13;4.57;;;6.70;99.90;;;;;;5204232;28;20187;-52
2023/12/11 03:22:05;;;;;;;14.43;2.40;;;6.70;99.90;;;;;;5218383;28;20544;-51
2023/12/11 03:24:36;;;;;;;9.17;3.60;;;6.70;99.90;;;;;;5223231;28;20198;-50
2023/12/11 03:27:06;;;;;;;5.90;2.23;;;6.80;99.90;;;;;;5216486;28;20188;-48
2023/12/11 03:29:37;;;;;;;14.03;3.30;;;6.80;99.90;;;;;;5213493;28;20647;-50
2023/12/11 03:32:08;;;;;;;18.20;2.90;;;6.80;99.90;;;;;;5204116;28;20647;-52
2023/12/11 03:34:39;;;;;;;5.90;2.80;;;6.90;99.90;;;;;;5207046;28;20244;-50
2023/12/11 03:37:10;;;;;;;17.57;3.20;;;6.90;99.90;;;;;;5219472;28;20441;-50
2023/12/11 03:39:41;;;;;;;22.63;3.70;;;7.00;99.90;;;;;;5205560;28;21012;-51
2023/12/11 03:42:11;;;;;;;13.87;3.43;;;7.00;99.90;;;;;;5207832;28;20426;-50
2023/12/11 03:44:42;;;;;;;18.87;3.93;;;7.10;99.90;;;;;;5206661;28;20241;-50
2023/12/11 03:47:13;;;;;;;5.07;2.33;;;7.10;99.90;;;;;;5205708;28;20574;-51
2023/12/11 03:49:43;;;;;;;15.13;2.90;;;7.10;99.90;;;;;;5206867;28;20282;-50
2023/12/11 03:52:14;;;;;;;8.13;2.70;;;7.10;99.90;;;;;;5208855;28;20217;-50
2023/12/11 03:54:45;;;;;;;13.47;3.00;;;7.20;99.90;;;;;;5227383;28;20621;-49
2023/12/11 03:57:15;;;;;;;20.60;4.13;;;7.20;99.90;;;;;;5226129;28;20194;-49
2023/12/11 03:59:46;;;;;;;8.17;3.57;;;7.30;99.90;;;;;;5225542;28;20213;-49
2023/12/11 04:02:17;;;;;;;10.50;3.40;;;7.20;99.90;;;;;;5204537;28;20278;-49
2023/12/11 04:04:47;;;;;;;15.53;3.40;;;7.20;99.90;;;;;;5214120;28;20207;-51
2023/12/11 04:07:18;;;;;;;12.10;3.10;;;7.20;99.90;;;;;;5224995;28;20193;-49
2023/12/11 04:09:49;;;;;;;10.30;3.07;;;7.30;99.90;;;;;;5207608;28;20187;-50
2023/12/11 04:12:19;;;;;;;16.67;3.40;;;7.20;99.90;;;;;;5223602;28;20252;-50
2023/12/11 04:14:50;;;;;;;19.93;3.60;;;7.20;99.90;;;;;;5212883;28;20221;-50
2023/12/11 04:17:21;;;;;;;23.40;4.60;;;7.30;99.90;;;;;;5208368;28;20175;-50
2023/12/11 04:19:52;;;;;;;23.23;3.57;;;7.30;99.90;;;;;;5235118;28;20596;-50
2023/12/11 04:22:23;;;;;;;8.60;3.90;;;7.30;99.90;;;;;;5225303;28;20438;-51
2023/12/11 04:24:54;;;;;;;13.00;3.40;;;7.30;99.90;;;;;;5225804;28;20450;-50
2023/12/11 04:27:24;;;;;;;11.87;3.10;;;7.40;99.90;;;;;;5209902;28;20186;-50
2023/12/11 04:29:55;;;;;;;10.40;3.60;;;7.30;99.90;;;;;;5214730;28;20234;-50
2023/12/11 04:32:26;;;;;;;10.80;3.20;;;7.30;99.90;;;;;;5205711;28;20202;-50
2023/12/11 04:34:56;;;;;;;10.63;3.57;;;7.30;99.90;;;;;;5224518;28;20206;-49
2023/12/11 04:37:27;;;;;;;18.80;3.30;;;7.30;99.90;;;;;;5224547;28;20214;-49
2023/12/11 04:39:57;;;;;;;19.00;4.47;;;7.50;99.90;;;;;;5224599;28;20199;-51
2023/12/11 04:42:28;;;;;;;22.50;4.20;;;7.40;99.90;;;;;;5226932;28;20716;-50
2023/12/11 04:44:59;;;;;;;16.73;3.93;;;7.40;99.90;;;;;;5226182;28;20572;-49
2023/12/11 04:47:30;;;;;;;25.17;3.83;;;7.50;99.90;;;;;;5206303;28;20457;-51
2023/12/11 04:50:00;;;;;;;19.60;4.60;;;7.50;99.90;;;;;;5209125;28;20191;-50
2023/12/11 04:52:31;;;;;;;10.93;2.93;;;7.50;99.90;;;;;;5206272;28;20186;-49
2023/12/11 04:55:02;;;;;;;20.60;4.17;;;7.40;99.90;;;;;;5208589;28;20215;-49
2023/12/11 04:57:32;;;;;;;22.57;4.80;;;7.40;99.90;;;;;;5208434;28;20179;-50
2023/12/11 05:00:04;;;;;;;25.40;5.07;;;7.50;99.90;;;;;;5208811;28;20696;-51
2023/12/11 05:02:35;;;;;;;10.83;4.00;;;7.50;99.90;;;;;;5206057;28;20191;-51
2023/12/11 05:05:06;;;;;;;12.93;3.77;;;7.40;99.90;;;;;;5208468;28;20984;-49
2023/12/11 05:07:37;;;;;;;12.90;3.53;;;7.30;99.90;;;;;;5206616;28;20561;-50
2023/12/11 05:10:08;;;;;;;13.77;3.70;;;7.30;99.90;;;;;;5226175;28;20448;-50
2023/12/11 05:12:38;;;;;;;20.23;5.00;;;7.40;99.90;;;;;;5240688;28;20187;-49
2023/12/11 05:15:09;;;;;;;13.33;3.57;;;7.30;99.90;;;;;;5221170;28;20524;-50
2023/12/11 05:17:40;;;;;;;27.53;4.63;;;7.30;99.90;;;;;;5207092;28;20595;-50
2023/12/11 05:20:12;;;;;;;19.07;4.30;;;7.30;99.90;;;;;;5208581;28;20437;-51
2023/12/11 05:22:43;;;;;;;13.50;4.50;;;7.50;99.90;;;;;;5204661;28;20915;-50
2023/12/11 05:25:14;;;;;;;12.23;3.77;;;7.40;99.90;;;;;;5201581;28;20501;-50
2023/12/11 05:27:44;;;;;;;15.53;4.60;;;7.30;99.90;;;;;;5195324;28;20195;-50
2023/12/11 05:30:15;;;;;;;11.67;4.60;;;7.20;99.90;;;;;;5194695;28;20210;-51
2023/12/11 05:32:46;;;;;;;13.63;3.30;;;7.20;99.90;;;;;;5220905;28;20187;-52
2023/12/11 05:35:17;;;;;;;15.57;3.50;;;7.20;99.90;;;;;;5221697;28;20214;-51
2023/12/11 05:37:47;;;;;;;7.80;3.20;;;7.20;99.90;;;;;;5223388;28;20190;-51
2023/12/11 05:40:18;;;;;;;16.23;4.60;;;7.30;99.90;;;;;;5223607;28;20183;-47
2023/12/11 05:42:49;;;;;;;13.03;3.70;;;7.40;99.90;;;;;;5228991;28;20240;-50
2023/12/11 05:45:20;;;;;;;16.23;3.43;;;7.30;99.90;;;;;;5203928;28;20230;-48
2023/12/11 05:47:51;;;;;;;13.00;3.07;;;7.20;99.90;;;;;;5225628;28;20500;-50
2023/12/11 05:50:23;;;;;;;9.60;4.10;;;7.10;99.90;;;;;;5223090;28;20175;-51
2023/12/11 05:52:56;;;;;;;31.10;3.10;;;7.00;99.90;;;;;;5208471;28;20441;-49
2023/12/11 05:55:27;;;;;;;20.43;4.10;;;7.00;99.90;;;;;;5209653;28;20202;-51
2023/12/11 05:57:58;;;;;;;13.80;4.70;;;6.90;99.90;;;;;;5207914;28;20421;-52
2023/12/11 06:00:29;;;;;;;11.43;3.97;;;6.90;99.90;;;;;;5223431;28;20190;-53
2023/12/11 06:03:00;;;;;;;11.20;4.40;;;7.00;99.90;;;;;;5206553;28;20325;-49
2023/12/11 06:05:30;;;;;;;7.50;3.40;;;7.10;99.90;;;;;;5208911;28;20246;-49
2023/12/11 06:08:02;;;;;;;23.53;4.30;;;7.10;99.90;;;;;;5206578;28;20871;-49
2023/12/11 06:10:33;;;;;;;11.43;3.87;;;7.10;99.90;;;;;;5206740;28;20257;-48
2023/12/11 06:13:04;;;;;;;10.93;4.17;;;7.10;99.90;;;;;;5225927;28;20500;-49
2023/12/11 06:15:34;;;;;;;4.90;3.10;;;7.10;99.90;;;;;;5218287;28;20567;-47
2023/12/11 06:18:07;;;;;;;19.23;5.00;;;7.20;99.90;;;;;;5207801;28;20309;-48
2023/12/11 06:20:38;;;;;;;14.43;3.77;;;7.20;99.90;;;;;;5205129;28;20179;-51
2023/12/11 06:23:08;;;;;;;16.70;5.23;;;7.20;99.90;;;;;;5208313;28;20503;-48
2023/12/11 06:25:39;;;;;;;11.90;4.23;;;7.20;99.90;;;;;;5205849;28;20519;-47
2023/12/11 06:28:10;;;;;;;16.57;4.10;;;7.20;99.90;;;;;;5212264;28;20175;-48
2023/12/11 06:30:40;;;;;;;22.47;5.27;;;7.20;99.90;;;;;;5224631;28;20293;-48
2023/12/11 06:33:11;;;;;;;5.90;3.20;;;7.20;99.90;;;;;;5206104;28;20226;-49
2023/12/11 06:35:42;;;;;;;24.40;4.33;;;7.20;99.90;;;;;;5220741;28;20745;-49
2023/12/11 06:38:12;;;;;;;19.63;5.23;;;7.20;99.90;;;;;;5204443;28;20276;-49
2023/12/11 06:40:43;;;;;;;16.97;4.90;;;7.20;99.90;;;;;;5202182;28;20187;-49
2023/12/11 06:43:13;;;;;;;12.13;4.70;;;7.20;99.90;;;;;;5206387;28;20178;-52
2023/12/11 06:45:44;;;;;;;15.90;5.53;;;7.20;99.90;;;;;;5208377;28;20206;-49
2023/12/11 06:48:15;;;;;;;25.70;4.83;;;7.20;99.90;;;;;;5221081;28;20235;-49
2023/12/11 06:50:45;;;;;;;19.47;4.90;;;7.20;99.90;;;;;;5220641;28;20292;-50
2023/12/11 06:53:16;;;;;;;15.27;4.83;;;7.20;99.90;;;;;;5200724;28;20542;-48
2023/12/11 06:55:47;;;;;;;37.00;5.87;;;7.20;99.90;;;;;;5222606;28;20239;-48
2023/12/11 06:58:17;;;;;;;26.57;5.07;;;7.20;99.90;;;;;;5206834;28;20175;-51
2023/12/11 07:00:50;;;;;;;24.80;4.97;;;7.20;99.90;;;;;;5223193;28;20233;-49
2023/12/11 07:03:20;;;;;;;15.93;4.97;;;7.20;99.90;;;;;;5207955;28;20187;-47
2023/12/11 07:05:51;;;;;;;19.97;5.60;;;7.30;99.90;;;;;;5220036;28;20479;-48
2023/12/11 07:08:22;;;;;;;13.17;5.10;;;7.30;99.90;;;;;;5206517;28;20540;-48
2023/12/11 07:10:53;;;;;;;16.40;5.40;;;7.30;99.90;;;;;;5221144;28;20187;-49
2023/12/11 07:13:23;;;;;;;31.43;5.33;;;7.30;99.90;;;;;;5195164;28;20210;-51
2023/12/11 07:15:54;;;;;;;17.83;7.10;;;7.30;99.90;;;;;;5221681;28;20538;-47
2023/12/11 07:18:25;;;;;;;11.83;4.40;;;7.30;99.90;;;;;;5222322;28;20534;-49
2023/12/11 07:20:56;;;;;;;22.60;6.03;;;7.30;99.90;;;;;;5226346;28;20182;-49
2023/12/11 07:23:27;;;;;;;17.47;5.20;;;7.30;99.90;;;;;;5208385;28;20183;-52
2023/12/11 07:25:58;;;;;;;9.70;4.60;;;7.20;99.90;;;;;;5209711;28;20457;-50
2023/12/11 07:28:28;;;;;;;14.67;5.20;;;7.30;99.90;;;;;;5222863;28;20921;-48
2023/12/11 07:31:00;;;;;;;21.60;5.07;;;7.30;99.90;;;;;;5211397;28;20189;-48
2023/12/11 07:33:32;;;;;;;10.90;4.20;;;7.30;99.90;;;;;;5225696;28;20241;-48
2023/12/11 07:36:03;;;;;;;24.67;5.30;;;7.30;99.90;;;;;;5209503;28;20454;-50
2023/12/11 07:38:34;;;;;;;23.47;4.80;;;7.30;99.90;;;;;;5224580;28;20442;-48
2023/12/11 07:41:05;;;;;;;7.37;4.17;;;7.30;99.90;;;;;;5210650;28;20430;-48
2023/12/11 07:43:35;;;;;;;12.40;5.03;;;7.30;99.90;;;;;;5228036;28;20545;-49
2023/12/11 07:46:06;;;;;;;6.47;4.97;;;7.40;99.90;;;;;;5221625;28;20211;-48
2023/12/11 07:48:37;;;;;;;26.03;5.90;;;7.30;99.90;;;;;;5206231;28;20175;-50
2023/12/11 07:51:19;;;;;;;22.07;4.90;;;7.30;99.90;;;;;;5223379;28;20225;-53
2023/12/11 07:53:51;;;;;;;19.37;5.97;;;7.30;99.90;;;;;;5228752;28;20210;-50
2023/12/11 07:56:23;;;;;;;20.83;4.67;;;7.30;99.90;;;;;;5222094;28;20492;-49
2023/12/11 07:58:53;;;;;;;13.20;3.97;;;7.30;99.90;;;;;;5207779;28;20495;-49
2023/12/11 08:01:30;;;;;;;12.93;5.00;;;7.30;99.90;;;;;;5224022;28;20788;-50
2023/12/11 08:04:01;;;;;;;19.23;5.00;;;7.30;99.90;;;;;;5226545;28;20610;-49
2023/12/11 08:06:33;;;;;;;7.60;3.63;;;7.30;99.90;;;;;;5209460;28;20572;-51
2023/12/11 08:09:04;;;;;;;18.80;4.17;;;7.30;99.90;;;;;;5223701;28;20647;-49
2023/12/11 08:11:35;;;;;;;13.17;5.10;;;7.30;99.90;;;;;;5209397;28;20432;-47
2023/12/11 08:14:06;;;;;;;20.47;4.90;;;7.30;99.90;;;;;;5206884;28;20519;-50
2023/12/11 08:16:36;;;;;;;18.73;5.47;;;7.40;99.90;;;;;;5226842;28;20449;-51
2023/12/11 08:19:07;;;;;;;21.83;5.90;;;7.40;99.90;;;;;;5227407;28;20574;-48
2023/12/11 08:21:38;;;;;;;15.37;4.20;;;7.30;99.90;;;;;;5209061;28;20187;-50
2023/12/11 08:24:08;;;;;;;17.20;4.87;;;7.30;99.90;;;;;;5208502;28;20191;-47
2023/12/11 08:26:39;;;;;;;15.07;4.23;;;7.30;99.90;;;;;;5226086;28;20199;-49
2023/12/11 08:29:10;;;;;;;15.43;4.03;;;7.30;99.90;;;;;;5222038;28;20187;-49
2023/12/11 08:31:40;;;;;;;7.97;3.37;;;7.30;99.90;;;;;;5209016;28;20290;-50
2023/12/11 08:34:11;;;;;;;11.93;3.60;;;7.30;99.90;;;;;;5227750;28;20237;-48
2023/12/11 08:36:42;;;;;;;12.07;3.80;;;7.30;99.90;;;;;;5223300;28;20532;-49
2023/12/11 08:39:12;;;;;;;20.57;5.57;;;7.40;99.90;;;;;;5215090;28;20207;-48
2023/12/11 08:41:43;;;;;;;13.70;4.40;;;7.40;99.90;;;;;;5209281;28;20182;-48
2023/12/11 08:44:14;;;;;;;8.67;3.13;;;7.50;99.90;;;;;;5224356;28;20195;-46
2023/12/11 08:46:45;;;;;;;15.13;3.50;;;7.50;99.90;;;;;;5220873;28;20604;-49
2023/12/11 08:49:16;;;;;;;13.37;3.30;;;7.60;99.90;;;;;;5219802;28;20443;-48
2023/12/11 08:51:47;;;;;;;4.80;3.27;;;7.60;99.90;;;;;;5208689;28;20198;-47
2023/12/11 08:54:18;;;;;;;20.20;4.50;;;7.70;99.90;;;;;;5211749;28;20453;-48
2023/12/11 08:56:48;;;;;;;9.53;3.87;;;7.80;99.90;;;;;;5224164;28;20203;-48
2023/12/11 08:59:20;;;;;;;21.03;4.10;;;7.90;99.90;;;;;;5221566;28;20210;-47
2023/12/11 09:01:51;;;;;;;12.93;4.03;;;8.00;99.90;;;;;;5215096;28;20524;-49
2023/12/11 09:04:21;;;;;;;13.67;4.37;;;8.00;99.90;;;;;;5226857;28;20449;-48
2023/12/11 09:06:52;;;;;;;14.17;3.93;;;8.00;99.90;;;;;;5261216;22;20230;-50
2023/12/11 09:09:23;;;;;;;14.57;3.40;;;8.00;99.90;;;;;;5211220;28;20269;-51
2023/12/11 09:11:54;;;;;;;25.87;3.90;;;8.10;99.90;;;;;;5220712;28;20175;-50
2023/12/11 09:14:25;;;;;;;6.77;3.13;;;8.10;99.90;;;;;;5224339;28;20198;-51
2023/12/11 09:16:55;;;;;;;23.43;5.53;;;8.10;99.90;;;;;;5204085;28;20473;-51
2023/12/11 09:19:28;;;;;;;14.23;4.40;;;8.00;99.90;;;;;;5203510;28;20180;-50
2023/12/11 09:21:59;;;;;;;14.50;4.23;;;8.00;99.90;;;;;;5200620;28;20183;-51
2023/12/11 09:24:29;;;;;;;6.63;3.23;;;8.00;99.90;;;;;;5203704;28;20438;-52
2023/12/11 09:27:00;;;;;;;19.00;3.87;;;7.90;99.90;;;;;;5200502;28;20199;-52
2023/12/11 09:29:31;;;;;;;19.73;4.70;;;7.90;99.90;;;;;;5201108;28;20187;-49
2023/12/11 09:32:02;;;;;;;20.07;3.37;;;7.90;99.90;;;;;;5196445;28;20180;-50
2023/12/11 09:34:33;;;;;;;25.13;4.90;;;7.80;99.90;;;;;;5200495;28;20297;-52
2023/12/11 09:37:04;;;;;;;6.43;3.70;;;7.70;99.90;;;;;;5202985;28;20495;-52
2023/12/11 09:39:35;;;;;;;18.13;4.23;;;7.70;99.90;;;;;;5199680;28;20431;-50
2023/12/11 09:42:08;;;;;;;19.67;4.70;;;7.70;99.90;;;;;;5203127;28;20644;-49
2023/12/11 09:44:44;;;;;;;14.53;3.80;;;7.70;99.90;;;;;;5197568;28;20668;-51
2023/12/11 09:47:25;;;;;;;9.33;3.80;;;7.70;99.90;;;;;;5202087;28;20454;-51
2023/12/11 09:49:56;;;;;;;6.23;3.80;;;7.70;99.90;;;;;;5197573;28;20442;-52
2023/12/11 09:52:28;;;;;;;5.60;3.13;;;7.70;99.90;;;;;;5196615;28;20951;-51
2023/12/11 09:54:59;;;;;;;15.17;3.93;;;7.70;99.90;;;;;;5194153;28;20522;-50
2023/12/11 09:57:30;;;;;;;26.83;4.93;;;7.70;99.90;;;;;;5198840;28;21025;-50
2023/12/11 10:00:01;;;;;;;21.23;4.13;;;7.70;99.90;;;;;;5200258;28;20184;-50
2023/12/11 10:02:31;;;;;;;27.83;4.30;;;7.70;99.90;;;;;;5201680;28;20195;-51
2023/12/11 10:05:04;;;;;;;15.17;3.27;;;7.80;99.90;;;;;;5199026;28;20441;-52
2023/12/11 10:07:42;;;;;;;22.27;4.30;;;7.80;99.90;;;;;;5195334;28;20242;-52
2023/12/11 10:10:38;;;;;;;13.30;3.53;;;7.80;99.90;;;;;;5195637;28;20800;-53
2023/12/11 10:13:20;;;;;;;24.77;3.47;;;7.70;99.90;;;;;;5195646;28;20426;-50
2023/12/11 10:15:51;;;;;;;23.70;4.10;;;7.70;99.90;;;;;;5197039;28;20458;-51
2023/12/11 10:18:22;;;;;;;23.83;4.33;;;7.80;99.90;;;;;;5198144;28;20442;-52
2023/12/11 10:20:57;;;;;;;17.20;4.30;;;7.70;99.90;;;;;;5199971;28;20190;-52
2023/12/11 10:23:27;;;;;;;12.43;3.93;;;7.70;99.90;;;;;;5199155;28;20241;-51
2023/12/11 10:26:05;;;;;;;15.40;3.50;;;7.70;99.90;;;;;;5201574;28;20458;-51
2023/12/11 10:28:36;;;;;;;11.53;2.30;;;7.80;99.90;;;;;;5198740;28;20210;-50
2023/12/11 10:31:07;;;;;;;10.13;3.30;;;7.80;99.90;;;;;;5199161;28;20431;-51
2023/12/11 10:33:48;;;;;;;10.73;2.83;;;7.80;99.90;;;;;;5204496;28;20215;-50
2023/12/11 10:36:19;;;;;;;8.80;3.20;;;7.90;99.90;;;;;;5202460;28;20543;-51
2023/12/11 10:39:05;;;;;;;8.13;2.70;;;7.80;99.90;;;;;;5201785;28;20870;-51
2023/12/11 10:41:36;;;;;;;15.70;3.57;;;7.90;99.90;;;;;;5200904;28;20205;-51
2023/12/11 10:44:07;;;;;;;15.43;3.27;;;7.90;99.90;;;;;;5197862;28;20452;-52
2023/12/11 10:46:38;;;;;;;8.80;2.30;;;7.90;99.90;;;;;;5191527;28;20459;-50
2023/12/11 10:49:09;;;;;;;5.23;2.13;;;7.90;99.90;;;;;;5185572;28;20496;-53
2023/12/11 10:51:41;;;;;;;15.40;2.40;;;7.90;99.90;;;;;;5199572;28;20383;-52
2023/12/11 10:54:11;;;;;;;9.77;3.03;;;7.90;99.90;;;;;;5198978;28;20457;-51
2023/12/11 10:56:44;;;;;;;8.03;2.80;;;7.90;99.90;;;;;;5202235;28;20460;-51
2023/12/11 10:59:16;;;;;;;14.43;3.43;;;7.90;99.90;;;;;;5202614;28;20590;-51
2023/12/11 11:01:50;;;;;;;10.20;2.80;;;7.90;99.90;;;;;;5205711;28;20442;-51
2023/12/11 11:04:22;;;;;;;25.03;4.00;;;7.90;99.90;;;;;;5219180;28;20456;-52
2023/12/11 11:07:12;;;;;;;7.20;2.20;;;7.80;99.90;;;;;;5201116;28;20466;-52
2023/12/11 11:10:12;;;;;;;15.87;4.00;;;7.80;99.90;;;;;;5208279;28;20872;-52
2023/12/11 11:12:58;;;;;;;13.43;3.73;;;7.90;99.90;;;;;;5188371;28;20426;-52
2023/12/11 11:15:29;;;;;;;20.03;3.43;;;7.90;99.90;;;;;;5200877;28;20470;-51
2023/12/11 11:18:07;;;;;;;15.43;4.43;;;8.00;99.90;;;;;;5201967;28;20442;-52
2023/12/11 11:20:39;;;;;;;6.97;3.50;;;8.10;99.90;;;;;;5203362;28;20192;-53
2023/12/11 11:23:16;;;;;;;16.17;4.10;;;8.10;99.90;;;;;;5204366;28;20434;-52
2023/12/11 11:25:53;;;;;;;11.67;4.50;;;8.10;99.90;;;;;;5197680;28;20450;-53
2023/12/11 11:28:50;;;;;;;20.10;4.93;;;8.10;99.90;;;;;;5205272;28;20483;-53
2023/12/11 11:31:48;;;;;;;10.30;4.37;;;8.20;99.90;;;;;;5199627;28;20419;-53
2023/12/11 11:34:45;;;;;;;12.10;3.37;;;8.30;99.90;;;;;;5205290;28;20480;-53
2023/12/11 11:37:37;;;;;;;8.23;3.40;;;8.40;99.90;;;;;;5196170;28;20454;-51
2023/12/11 11:40:08;;;;;;;9.03;3.87;;;8.40;99.90;;;;;;5217909;28;20826;-50
2023/12/11 11:42:39;;;;;;;7.20;2.73;;;8.40;99.90;;;;;;5205049;28;20511;-51
2023/12/11 11:45:11;;;;;;;17.00;4.60;;;8.40;99.90;;;;;;5199506;28;20493;-50
2023/12/11 11:47:42;;;;;;;13.80;5.50;;;8.50;99.90;;;;;;5199658;28;20191;-50
2023/12/11 11:50:13;;;;;;;8.63;3.60;;;8.50;99.90;;;;;;5205788;28;20437;-50
2023/12/11 11:52:47;;;;;;;9.70;3.60;;;8.60;99.90;;;;;;5209200;28;20423;-52
2023/12/11 11:55:27;;;;;;;22.37;3.83;;;8.70;99.90;;;;;;5206499;28;20477;-51
2023/12/11 11:57:58;;;;;;;22.47;5.40;;;8.70;99.90;;;;;;5205310;28;20438;-51
2023/12/11 12:00:29;;;;;;;13.77;4.50;;;8.60;99.90;;;;;;5194380;28;20508;-52
2023/12/11 12:03:04;;;;;;;13.93;3.23;;;8.60;99.90;;;;;;5203531;28;20189;-51
2023/12/11 12:05:36;;;;;;;12.40;2.90;;;8.60;99.90;;;;;;5189224;28;20211;-52
2023/12/11 12:08:08;;;;;;;11.67;4.13;;;8.70;99.90;;;;;;5201504;28;20484;-50
2023/12/11 12:10:38;;;;;;;19.83;5.00;;;8.70;99.90;;;;;;5202457;28;20494;-51
2023/12/11 12:13:10;;;;;;;7.80;3.47;;;8.70;99.90;;;;;;5204896;28;20521;-51
2023/12/11 12:15:44;;;;;;;12.20;3.80;;;8.70;99.90;;;;;;5202116;28;20277;-52
2023/12/11 12:18:15;;;;;;;11.20;3.73;;;8.70;99.90;;;;;;5200960;28;20437;-52
2023/12/11 12:21:03;;;;;;;16.50;3.83;;;8.70;99.90;;;;;;5202358;28;20444;-52
2023/12/11 12:23:34;;;;;;;8.73;3.50;;;8.70;99.90;;;;;;5211056;28;20181;-52
2023/12/11 12:26:06;;;;;;;11.70;3.13;;;8.80;99.90;;;;;;5209236;28;20446;-52
2023/12/11 12:28:36;;;;;;;11.50;3.00;;;8.80;99.90;;;;;;5210286;28;20218;-52
2023/12/11 12:31:07;;;;;;;38.23;4.83;;;8.80;99.90;;;;;;5203497;28;20462;-53
2023/12/11 12:33:38;;;;;;;11.37;2.80;;;8.80;99.90;;;;;;5203374;28;20215;-52
2023/12/11 12:36:10;;;;;;;14.03;3.03;;;8.80;99.90;;;;;;5205256;28;20203;-50
2023/12/11 12:38:41;;;;;;;6.77;3.20;;;8.80;99.90;;;;;;5203422;28;20435;-52
2023/12/11 12:41:12;;;;;;;11.63;4.13;;;8.80;99.90;;;;;;5202510;28;20502;-52
2023/12/11 12:43:43;;;;;;;27.23;4.77;;;8.80;99.90;;;;;;5197374;28;20525;-50
2023/12/11 12:46:14;;;;;;;21.00;3.07;;;8.80;99.90;;;;;;5203840;28;20458;-51
2023/12/11 12:48:45;;;;;;;13.17;3.77;;;8.80;99.90;;;;;;5202900;28;20179;-51
2023/12/11 12:51:16;;;;;;;8.37;2.90;;;8.90;99.90;;;;;;5202621;28;20465;-52
2023/12/11 12:53:54;;;;;;;10.27;3.53;;;8.90;99.90;;;;;;5191439;28;21066;-51
2023/12/11 12:56:31;;;;;;;5.20;2.90;;;8.90;99.90;;;;;;5204662;28;20618;-50
2023/12/11 12:59:03;;;;;;;19.23;3.50;;;9.00;99.90;;;;;;5198005;28;20426;-53
2023/12/11 13:01:39;;;;;;;11.00;3.00;;;9.00;99.90;;;;;;5196682;28;20423;-51
2023/12/11 13:04:14;;;;;;;18.70;4.63;;;9.10;99.90;;;;;;5196466;28;20456;-51
2023/12/11 13:06:45;;;;;;;7.83;3.33;;;9.10;99.90;;;;;;5199501;28;20478;-52
2023/12/11 13:09:30;;;;;;;12.27;3.40;;;9.10;99.90;;;;;;5198013;28;20965;-50
2023/12/11 13:12:02;;;;;;;11.47;4.20;;;9.20;99.90;;;;;;5199214;28;20180;-51
2023/12/11 13:14:33;;;;;;;7.03;2.30;;;9.20;99.90;;;;;;5195756;28;20879;-50